createdAt,value
2023-05-18T00:00:11.848Z,85.18
2023-05-18T00:01:11.840Z,85.18
2023-05-18T00:02:11.877Z,85.18
2023-05-18T00:03:11.886Z,84.97
2023-05-18T00:04:11.833Z,84.97
2023-05-18T00:05:11.787Z,85.08
2023-05-18T00:06:11.814Z,84.56
2023-05-18T00:07:11.792Z,85.08
2023-05-18T00:08:11.756Z,85.28
2023-05-18T00:09:11.745Z,85.18
2023-05-18T00:10:11.803Z,84.97
2023-05-18T00:11:11.723Z,85.28
2023-05-18T00:12:11.698Z,85.49
2023-05-18T00:13:11.687Z,85.08
2023-05-18T00:14:11.670Z,85.28
2023-05-18T00:15:11.665Z,85.08
2023-05-18T00:16:11.756Z,85.08
2023-05-18T00:17:11.642Z,85.28
2023-05-18T00:18:11.842Z,85.49
2023-05-18T00:19:11.633Z,85.60
2023-05-18T00:20:11.594Z,85.39
2023-05-18T00:21:11.585Z,85.08
2023-05-18T00:22:11.599Z,84.97
2023-05-18T00:23:11.568Z,85.49
2023-05-18T00:24:11.543Z,85.80
2023-05-18T00:25:11.543Z,86.52
2023-05-18T00:26:11.524Z,86.42
2023-05-18T00:27:11.507Z,86.05
2023-05-18T00:28:11.495Z,86.11
2023-05-18T00:29:11.488Z,86.42
2023-05-18T00:30:11.480Z,86.94
2023-05-18T00:31:11.498Z,87.35
2023-05-18T00:32:11.457Z,87.04
2023-05-18T00:33:11.464Z,86.42
2023-05-18T00:34:11.439Z,86.67
2023-05-18T00:35:11.415Z,86.67
2023-05-18T00:36:11.402Z,86.15
2023-05-18T00:37:11.385Z,85.84
2023-05-18T00:38:11.469Z,86.46
2023-05-18T00:39:11.355Z,86.05
2023-05-18T00:40:11.356Z,86.05
2023-05-18T00:41:11.365Z,86.25
2023-05-18T00:42:11.357Z,86.25
2023-05-18T00:43:11.424Z,86.15
2023-05-18T00:44:11.304Z,86.05
2023-05-18T00:45:11.326Z,86.05
2023-05-18T00:46:11.292Z,86.05
2023-05-18T00:47:11.260Z,86.36
2023-05-18T00:48:11.295Z,86.46
2023-05-18T00:49:11.246Z,85.94
2023-05-18T00:50:11.303Z,86.15
2023-05-18T00:51:11.215Z,86.57
2023-05-18T00:52:11.190Z,86.57
2023-05-18T00:53:11.246Z,86.05
2023-05-18T00:54:11.258Z,86.05
2023-05-18T00:55:11.175Z,86.46
2023-05-18T00:56:11.171Z,86.88
2023-05-18T00:57:11.148Z,86.98
2023-05-18T00:58:11.121Z,87.49
2023-05-18T00:59:11.119Z,87.81
2023-05-18T01:00:11.109Z,87.91
2023-05-18T01:01:11.124Z,87.81
2023-05-18T01:02:11.131Z,88.01
2023-05-18T01:03:11.310Z,88.22
2023-05-18T01:04:11.042Z,88.22
2023-05-18T01:05:11.049Z,87.60
2023-05-18T01:06:11.016Z,87.70
2023-05-18T01:07:11.011Z,88.12
2023-05-18T01:08:10.998Z,88.12
2023-05-18T01:09:10.989Z,88.16
2023-05-18T01:10:10.995Z,88.22
2023-05-18T01:11:11.011Z,88.32
2023-05-18T01:12:10.945Z,88.57
2023-05-18T01:13:10.936Z,88.57
2023-05-18T01:14:10.926Z,88.67
2023-05-18T01:15:10.904Z,88.78
2023-05-18T01:16:10.897Z,88.94
2023-05-18T01:17:11.066Z,88.26
2023-05-18T01:18:10.947Z,88.74
2023-05-18T01:19:10.886Z,88.84
2023-05-18T01:20:10.847Z,88.53
2023-05-18T01:21:10.830Z,88.53
2023-05-18T01:22:10.815Z,88.43
2023-05-18T01:23:10.805Z,88.32
2023-05-18T01:24:10.784Z,88.74
2023-05-18T01:25:10.773Z,88.78
2023-05-18T01:26:10.792Z,88.36
2023-05-18T01:27:10.755Z,88.46
2023-05-18T01:28:10.734Z,88.16
2023-05-18T01:29:10.723Z,88.06
2023-05-18T01:30:10.725Z,88.16
2023-05-18T01:31:10.729Z,87.95
2023-05-18T01:32:10.686Z,88.26
2023-05-18T01:33:10.755Z,88.06
2023-05-18T01:34:10.654Z,87.95
2023-05-18T01:35:10.658Z,87.64
2023-05-18T01:36:10.636Z,87.43
2023-05-18T01:37:10.629Z,87.85
2023-05-18T01:38:10.606Z,88.26
2023-05-18T01:39:10.598Z,88.46
2023-05-18T01:40:10.608Z,88.61
2023-05-18T01:41:10.586Z,88.82
2023-05-18T01:42:10.636Z,88.82
2023-05-18T01:43:10.553Z,88.61
2023-05-18T01:44:10.535Z,88.20
2023-05-18T01:45:10.511Z,88.20
2023-05-18T01:46:10.537Z,88.51
2023-05-18T01:47:10.484Z,88.82
2023-05-18T01:48:10.565Z,88.78
2023-05-18T01:49:10.472Z,88.46
2023-05-18T01:50:10.451Z,88.16
2023-05-18T01:51:10.464Z,88.46
2023-05-18T01:52:10.437Z,88.57
2023-05-18T01:53:10.418Z,88.46
2023-05-18T01:54:10.402Z,88.06
2023-05-18T01:55:10.384Z,87.33
2023-05-18T01:56:10.377Z,87.33
2023-05-18T01:57:10.357Z,87.43
2023-05-18T01:58:10.364Z,87.64
2023-05-18T01:59:10.333Z,87.54
2023-05-18T02:00:10.363Z,87.74
2023-05-18T02:01:10.314Z,87.54
2023-05-18T02:02:10.356Z,87.64
2023-05-18T02:03:10.396Z,87.64
2023-05-18T02:04:10.630Z,87.43
2023-05-18T02:05:10.266Z,87.95
2023-05-18T02:06:10.252Z,87.54
2023-05-18T02:07:10.237Z,87.64
2023-05-18T02:08:10.215Z,88.36
2023-05-18T02:09:10.212Z,87.85
2023-05-18T02:10:10.193Z,87.43
2023-05-18T02:11:10.187Z,87.43
2023-05-18T02:12:10.160Z,87.23
2023-05-18T02:13:10.154Z,87.33
2023-05-18T02:14:10.169Z,87.23
2023-05-18T02:15:10.129Z,87.43
2023-05-18T02:16:10.166Z,87.64
2023-05-18T02:17:10.103Z,87.95
2023-05-18T02:18:10.135Z,88.36
2023-05-18T02:19:10.109Z,88.46
2023-05-18T02:20:10.160Z,88.78
2023-05-18T02:21:10.066Z,88.36
2023-05-18T02:22:10.038Z,87.54
2023-05-18T02:23:10.020Z,87.54
2023-05-18T02:24:10.013Z,87.85
2023-05-18T02:25:09.991Z,88.26
2023-05-18T02:26:09.986Z,88.36
2023-05-18T02:27:09.990Z,88.36
2023-05-18T02:28:09.962Z,88.78
2023-05-18T02:29:09.941Z,88.78
2023-05-18T02:30:09.977Z,88.06
2023-05-18T02:31:09.917Z,87.54
2023-05-18T02:32:10.071Z,87.33
2023-05-18T02:33:09.972Z,87.95
2023-05-18T02:34:09.872Z,88.16
2023-05-18T02:35:09.888Z,88.36
2023-05-18T02:36:09.859Z,88.06
2023-05-18T02:37:09.831Z,87.74
2023-05-18T02:38:09.821Z,87.85
2023-05-18T02:39:09.808Z,88.26
2023-05-18T02:40:09.799Z,88.36
2023-05-18T02:41:09.784Z,88.06
2023-05-18T02:42:09.786Z,88.06
2023-05-18T02:43:09.762Z,88.26
2023-05-18T02:44:09.745Z,88.16
2023-05-18T02:45:09.729Z,88.46
2023-05-18T02:46:09.899Z,88.16
2023-05-18T02:47:09.712Z,88.57
2023-05-18T02:48:09.732Z,88.46
2023-05-18T02:49:09.692Z,88.36
2023-05-18T02:50:09.676Z,88.78
2023-05-18T02:51:09.662Z,88.98
2023-05-18T02:52:09.651Z,89.09
2023-05-18T02:53:09.640Z,89.09
2023-05-18T02:54:09.628Z,88.57
2023-05-18T02:55:09.614Z,88.16
2023-05-18T02:56:09.602Z,88.46
2023-05-18T02:57:09.578Z,88.67
2023-05-18T02:58:09.587Z,88.88
2023-05-18T02:59:09.550Z,88.78
2023-05-18T03:00:09.551Z,88.36
2023-05-18T03:01:09.560Z,88.26
2023-05-18T03:02:09.562Z,88.36
2023-05-18T03:03:09.691Z,88.57
2023-05-18T03:04:09.500Z,88.78
2023-05-18T03:05:09.480Z,88.78
2023-05-18T03:06:09.471Z,88.36
2023-05-18T03:07:09.461Z,87.99
2023-05-18T03:08:09.444Z,88.26
2023-05-18T03:09:09.426Z,88.20
2023-05-18T03:10:09.420Z,88.30
2023-05-18T03:11:09.407Z,88.71
2023-05-18T03:12:09.405Z,89.03
2023-05-18T03:13:09.376Z,89.34
2023-05-18T03:14:09.377Z,88.92
2023-05-18T03:15:09.356Z,88.51
2023-05-18T03:16:09.338Z,88.51
2023-05-18T03:17:09.392Z,89.03
2023-05-18T03:18:09.423Z,89.44
2023-05-18T03:19:09.381Z,89.44
2023-05-18T03:20:09.290Z,89.34
2023-05-18T03:21:09.267Z,89.54
2023-05-18T03:22:09.290Z,89.86
2023-05-18T03:23:09.255Z,89.96
2023-05-18T03:24:09.244Z,89.96
2023-05-18T03:25:09.243Z,89.86
2023-05-18T03:26:09.214Z,88.92
2023-05-18T03:27:09.200Z,88.82
2023-05-18T03:28:09.198Z,88.61
2023-05-18T03:29:09.175Z,88.82
2023-05-18T03:30:09.169Z,89.23
2023-05-18T03:31:09.168Z,89.44
2023-05-18T03:32:09.136Z,89.44
2023-05-18T03:33:09.172Z,89.34
2023-05-18T03:34:09.133Z,89.23
2023-05-18T03:35:09.090Z,89.38
2023-05-18T03:36:09.098Z,89.07
2023-05-18T03:37:09.073Z,89.38
2023-05-18T03:38:09.076Z,89.69
2023-05-18T03:39:09.038Z,89.69
2023-05-18T03:40:09.050Z,88.96
2023-05-18T03:41:09.026Z,89.17
2023-05-18T03:42:09.024Z,89.69
2023-05-18T03:43:08.996Z,90.00
2023-05-18T03:44:09.003Z,90.00
2023-05-18T03:45:08.967Z,88.86
2023-05-18T03:46:08.997Z,88.65
2023-05-18T03:47:08.934Z,88.45
2023-05-18T03:48:08.955Z,88.20
2023-05-18T03:49:08.942Z,87.99
2023-05-18T03:50:08.970Z,88.20
2023-05-18T03:51:08.921Z,88.51
2023-05-18T03:52:08.873Z,89.03
2023-05-18T03:53:08.866Z,89.03
2023-05-18T03:54:08.854Z,88.82
2023-05-18T03:55:08.843Z,88.40
2023-05-18T03:56:08.829Z,88.09
2023-05-18T03:57:08.833Z,87.57
2023-05-18T03:58:08.790Z,87.78
2023-05-18T03:59:08.791Z,88.20
2023-05-18T04:00:08.787Z,87.88
2023-05-18T04:01:08.761Z,87.47
2023-05-18T04:02:08.857Z,87.47
2023-05-18T04:03:08.775Z,87.99
2023-05-18T04:04:08.782Z,88.61
2023-05-18T04:05:08.716Z,88.51
2023-05-18T04:06:08.716Z,88.71
2023-05-18T04:07:08.679Z,88.92
2023-05-18T04:08:08.678Z,89.03
2023-05-18T04:09:08.671Z,88.71
2023-05-18T04:10:08.642Z,88.61
2023-05-18T04:11:08.632Z,88.30
2023-05-18T04:12:08.613Z,88.51
2023-05-18T04:13:08.614Z,88.51
2023-05-18T04:14:08.593Z,88.20
2023-05-18T04:15:08.580Z,88.61
2023-05-18T04:16:08.586Z,89.34
2023-05-18T04:17:08.548Z,89.65
2023-05-18T04:18:08.611Z,88.71
2023-05-18T04:19:08.640Z,88.71
2023-05-18T04:20:08.519Z,89.03
2023-05-18T04:21:08.495Z,88.71
2023-05-18T04:22:08.519Z,88.71
2023-05-18T04:23:08.489Z,88.92
2023-05-18T04:24:08.456Z,89.23
2023-05-18T04:25:08.457Z,89.54
2023-05-18T04:26:08.433Z,89.65
2023-05-18T04:27:08.433Z,89.03
2023-05-18T04:28:08.405Z,89.13
2023-05-18T04:29:08.404Z,89.34
2023-05-18T04:30:08.387Z,89.34
2023-05-18T04:31:08.380Z,89.34
2023-05-18T04:32:08.524Z,89.44
2023-05-18T04:33:08.394Z,89.34
2023-05-18T04:34:08.339Z,89.19
2023-05-18T04:35:08.326Z,89.61
2023-05-18T04:36:08.302Z,89.50
2023-05-18T04:37:08.299Z,88.67
2023-05-18T04:38:08.324Z,88.26
2023-05-18T04:39:08.277Z,88.46
2023-05-18T04:40:08.255Z,88.67
2023-05-18T04:41:08.287Z,88.16
2023-05-18T04:42:08.240Z,87.70
2023-05-18T04:43:08.212Z,87.70
2023-05-18T04:44:08.203Z,87.70
2023-05-18T04:45:08.201Z,87.04
2023-05-18T04:46:08.247Z,87.04
2023-05-18T04:47:08.172Z,86.63
2023-05-18T04:48:08.199Z,86.69
2023-05-18T04:49:08.137Z,86.18
2023-05-18T04:50:08.135Z,84.59
2023-05-18T04:51:08.129Z,84.59
2023-05-18T04:52:08.101Z,84.69
2023-05-18T04:53:08.098Z,84.55
2023-05-18T04:54:08.219Z,83.00
2023-05-18T04:55:08.057Z,83.41
2023-05-18T04:56:08.057Z,83.00
2023-05-18T04:57:08.033Z,82.38
2023-05-18T04:58:08.024Z,81.82
2023-05-18T04:59:08.011Z,81.41
2023-05-18T05:00:08.010Z,80.58
2023-05-18T05:01:08.025Z,80.38
2023-05-18T05:02:08.028Z,80.44
2023-05-18T05:03:08.079Z,81.17
2023-05-18T05:04:07.965Z,81.34
2023-05-18T05:05:07.933Z,80.93
2023-05-18T05:06:07.919Z,80.47
2023-05-18T05:07:07.897Z,80.58
2023-05-18T05:08:07.889Z,80.02
2023-05-18T05:09:07.885Z,79.30
2023-05-18T05:10:07.895Z,79.30
2023-05-18T05:11:07.854Z,78.28
2023-05-18T05:12:07.838Z,77.51
2023-05-18T05:13:07.828Z,77.00
2023-05-18T05:14:07.809Z,76.18
2023-05-18T05:15:07.805Z,76.66
2023-05-18T05:16:07.856Z,76.14
2023-05-18T05:17:07.777Z,75.94
2023-05-18T05:18:07.900Z,75.32
2023-05-18T05:19:07.793Z,75.49
2023-05-18T05:20:07.745Z,74.33
2023-05-18T05:21:07.719Z,73.78
2023-05-18T05:22:07.709Z,74.50
2023-05-18T05:23:07.708Z,73.13
2023-05-18T05:24:07.705Z,73.19
2023-05-18T05:25:07.680Z,72.27
2023-05-18T05:26:07.684Z,72.14
2023-05-18T05:27:07.643Z,71.28
2023-05-18T05:28:07.641Z,71.28
2023-05-18T05:29:07.624Z,70.84
2023-05-18T05:30:07.635Z,71.62
2023-05-18T05:31:07.620Z,71.08
2023-05-18T05:32:07.578Z,68.93
2023-05-18T05:33:07.594Z,68.62
2023-05-18T05:34:07.545Z,68.08
2023-05-18T05:35:07.531Z,68.55
2023-05-18T05:36:07.545Z,68.46
2023-05-18T05:37:07.513Z,67.91
2023-05-18T05:38:07.504Z,66.38
2023-05-18T05:39:07.494Z,68.25
2023-05-18T05:40:07.469Z,68.28
2023-05-18T05:41:07.479Z,69.31
2023-05-18T05:42:07.479Z,68.83
2023-05-18T05:43:07.453Z,69.37
2023-05-18T05:44:07.424Z,70.50
2023-05-18T05:45:07.413Z,70.29
2023-05-18T05:46:07.393Z,71.22
2023-05-18T05:47:07.545Z,70.70
2023-05-18T05:48:07.457Z,69.13
2023-05-18T05:49:07.367Z,68.62
2023-05-18T05:50:07.358Z,69.85
2023-05-18T05:51:07.338Z,71.18
2023-05-18T05:52:07.319Z,71.42
2023-05-18T05:53:07.332Z,71.08
2023-05-18T05:54:09.996Z,70.57
2023-05-18T05:55:07.283Z,69.92
2023-05-18T05:56:07.275Z,69.44
2023-05-18T05:57:07.276Z,70.50
2023-05-18T05:58:07.257Z,69.78
2023-05-18T05:59:07.235Z,69.89
2023-05-18T06:00:07.226Z,70.40
2023-05-18T06:01:07.206Z,70.77
2023-05-18T06:02:07.281Z,69.44
2023-05-18T06:03:07.191Z,69.71
2023-05-18T06:04:07.208Z,69.58
2023-05-18T06:05:07.152Z,68.49
2023-05-18T06:06:07.140Z,69.54
2023-05-18T06:07:07.142Z,69.47
2023-05-18T06:08:07.152Z,70.94
2023-05-18T06:09:07.096Z,72.17
2023-05-18T06:10:07.103Z,73.10
2023-05-18T06:11:08.252Z,71.66
2023-05-18T06:12:07.066Z,72.07
2023-05-18T06:13:07.045Z,72.07
2023-05-18T06:14:07.062Z,73.27
2023-05-18T06:15:07.026Z,71.62
2023-05-18T06:16:07.038Z,71.32
2023-05-18T06:17:07.029Z,71.22
2023-05-18T06:18:07.086Z,72.41
2023-05-18T06:19:07.100Z,72.28
2023-05-18T06:20:06.957Z,70.23
2023-05-18T06:21:06.940Z,69.71
2023-05-18T06:22:06.936Z,70.12
2023-05-18T06:23:06.928Z,71.45
2023-05-18T06:24:06.904Z,70.29
2023-05-18T06:25:06.913Z,69.89
2023-05-18T06:26:06.886Z,69.58
2023-05-18T06:27:06.870Z,70.16
2023-05-18T06:28:06.858Z,71.80
2023-05-18T06:29:06.835Z,71.49
2023-05-18T06:30:06.860Z,71.32
2023-05-18T06:31:06.828Z,72.41
2023-05-18T06:32:06.844Z,71.22
2023-05-18T06:33:06.867Z,69.72
2023-05-18T06:34:06.789Z,68.60
2023-05-18T06:35:06.777Z,66.54
2023-05-18T06:36:06.748Z,63.04
2023-05-18T06:37:06.739Z,63.16
2023-05-18T06:38:06.735Z,61.41
2023-05-18T06:39:06.718Z,58.49
2023-05-18T06:40:06.713Z,58.44
2023-05-18T06:41:06.688Z,56.79
2023-05-18T06:42:06.671Z,54.69
2023-05-18T06:43:06.666Z,53.07
2023-05-18T06:44:06.645Z,51.86
2023-05-18T06:45:06.642Z,50.08
2023-05-18T06:46:06.788Z,49.02
2023-05-18T06:47:06.619Z,46.54
2023-05-18T06:48:06.637Z,46.72
2023-05-18T06:49:06.665Z,46.59
2023-05-18T06:50:06.592Z,46.69
2023-05-18T06:51:06.562Z,47.05
2023-05-18T06:52:06.552Z,45.22
2023-05-18T06:53:06.553Z,45.58
2023-05-18T06:54:06.532Z,44.34
2023-05-18T06:55:06.511Z,42.43
2023-05-18T06:56:06.514Z,44.04
2023-05-18T06:57:06.490Z,42.69
2023-05-18T06:58:06.485Z,44.40
2023-05-18T06:59:06.472Z,43.96
2023-05-18T07:00:06.472Z,43.43
2023-05-18T07:01:06.478Z,44.10
2023-05-18T07:02:06.457Z,44.30
2023-05-18T07:03:06.592Z,45.66
2023-05-18T07:04:06.652Z,43.96
2023-05-18T07:05:06.422Z,44.80
2023-05-18T07:06:06.375Z,44.30
2023-05-18T07:07:06.363Z,45.34
2023-05-18T07:08:06.369Z,45.06
2023-05-18T07:09:06.345Z,46.03
2023-05-18T07:10:06.319Z,46.23
2023-05-18T07:11:06.322Z,44.88
2023-05-18T07:12:06.290Z,44.04
2023-05-18T07:13:06.286Z,45.71
2023-05-18T07:14:06.265Z,48.74
2023-05-18T07:15:06.254Z,51.03
2023-05-18T07:16:06.315Z,53.72
2023-05-18T07:17:06.225Z,56.41
2023-05-18T07:18:06.360Z,60.81
2023-05-18T07:19:06.255Z,57.73
2023-05-18T07:20:06.192Z,54.84
2023-05-18T07:21:06.169Z,56.34
2023-05-18T07:22:06.170Z,54.44
2023-05-18T07:23:06.164Z,54.51
2023-05-18T07:24:06.132Z,54.31
2023-05-18T07:25:06.124Z,50.98
2023-05-18T07:26:06.114Z,48.77
2023-05-18T07:27:06.099Z,46.92
2023-05-18T07:28:06.085Z,47.44
2023-05-18T07:29:06.078Z,47.04
2023-05-18T07:30:06.064Z,47.94
2023-05-18T07:31:06.062Z,49.37
2023-05-18T07:32:06.042Z,49.52
2023-05-18T07:33:06.056Z,50.30
2023-05-18T07:34:06.056Z,49.35
2023-05-18T07:35:06.000Z,49.67
2023-05-18T07:36:05.985Z,48.11
2023-05-18T07:37:05.964Z,47.61
2023-05-18T07:38:05.967Z,47.28
2023-05-18T07:39:05.944Z,46.94
2023-05-18T07:40:05.934Z,47.06
2023-05-18T07:41:05.918Z,47.42
2023-05-18T07:42:05.918Z,46.26
2023-05-18T07:43:05.905Z,48.58
2023-05-18T07:44:05.886Z,50.32
2023-05-18T07:45:05.876Z,49.60
2023-05-18T07:46:05.861Z,47.32
2023-05-18T07:47:06.004Z,46.35
2023-05-18T07:48:05.865Z,44.80
2023-05-18T07:49:05.814Z,44.52
2023-05-18T07:50:05.839Z,44.93
2023-05-18T07:51:05.799Z,42.77
2023-05-18T07:52:05.786Z,44.38
2023-05-18T07:53:05.770Z,45.75
2023-05-18T07:54:05.770Z,45.15
2023-05-18T07:55:05.754Z,45.59
2023-05-18T07:56:05.770Z,45.21
2023-05-18T07:57:05.776Z,48.68
2023-05-18T07:58:05.708Z,48.98
2023-05-18T07:59:05.692Z,49.36
2023-05-18T08:00:05.687Z,49.24
2023-05-18T08:01:05.677Z,48.13
2023-05-18T08:02:05.719Z,49.58
2023-05-18T08:03:05.728Z,50.12
2023-05-18T08:04:05.727Z,50.95
2023-05-18T08:05:05.628Z,52.82
2023-05-18T08:06:05.638Z,49.92
2023-05-18T08:07:05.603Z,50.05
2023-05-18T08:08:06.992Z,48.61
2023-05-18T08:09:05.575Z,47.00
2023-05-18T08:10:05.568Z,47.78
2023-05-18T08:11:05.542Z,48.91
2023-05-18T08:12:05.521Z,49.52
2023-05-18T08:13:05.526Z,49.36
2023-05-18T08:14:05.499Z,51.05
2023-05-18T08:15:05.489Z,51.25
2023-05-18T08:16:11.803Z,50.97
2023-05-18T08:17:06.574Z,51.45
2023-05-18T08:18:05.521Z,54.28
2023-05-18T08:19:05.523Z,53.45
2023-05-18T08:20:05.417Z,53.80
2023-05-18T08:21:05.410Z,51.90
2023-05-18T08:22:05.436Z,50.46
2023-05-18T08:23:05.386Z,51.55
2023-05-18T08:24:05.375Z,53.40
2023-05-18T08:25:05.363Z,52.66
2023-05-18T08:26:05.358Z,53.93
2023-05-18T08:27:05.338Z,55.63
2023-05-18T08:28:05.342Z,54.72
2023-05-18T08:29:05.298Z,54.64
2023-05-18T08:30:05.300Z,55.12
2023-05-18T08:31:05.295Z,54.64
2023-05-18T08:32:05.402Z,54.87
2023-05-18T08:33:05.309Z,54.90
2023-05-18T08:34:05.249Z,55.30
2023-05-18T08:35:05.243Z,55.73
2023-05-18T08:36:05.238Z,56.55
2023-05-18T08:37:05.229Z,56.95
2023-05-18T08:38:05.922Z,56.14
2023-05-18T08:39:05.192Z,57.77
2023-05-18T08:40:05.178Z,55.63
2023-05-18T08:41:05.170Z,56.27
2023-05-18T08:42:05.148Z,56.60
2023-05-18T08:43:05.125Z,57.95
2023-05-18T08:44:05.121Z,57.78
2023-05-18T08:45:05.104Z,59.43
2023-05-18T08:46:05.090Z,60.83
2023-05-18T08:47:05.078Z,59.10
2023-05-18T08:48:05.181Z,60.02
2023-05-18T08:49:05.081Z,62.33
2023-05-18T08:50:05.051Z,61.38
2023-05-18T08:51:05.019Z,61.29
2023-05-18T08:52:05.035Z,59.73
2023-05-18T08:53:05.010Z,59.73
2023-05-18T08:54:05.077Z,59.12
2023-05-18T08:55:05.011Z,59.19
2023-05-18T08:56:04.979Z,58.76
2023-05-18T08:57:05.007Z,59.27
2023-05-18T08:58:04.944Z,57.23
2023-05-18T08:59:04.929Z,56.85
2023-05-18T09:00:04.907Z,57.36
2023-05-18T09:01:04.963Z,58.69
2023-05-18T09:02:04.961Z,57.36
2023-05-18T09:03:04.949Z,58.78
2023-05-18T09:04:04.869Z,60.52
2023-05-18T09:05:04.900Z,57.74
2023-05-18T09:06:04.850Z,60.49
2023-05-18T09:07:04.816Z,57.23
2023-05-18T09:08:04.815Z,59.16
2023-05-18T09:09:04.802Z,58.07
2023-05-18T09:10:04.821Z,59.70
2023-05-18T09:11:04.777Z,58.00
2023-05-18T09:12:04.767Z,58.71
2023-05-18T09:13:04.759Z,56.68
2023-05-18T09:14:04.733Z,60.31
2023-05-18T09:15:04.725Z,56.55
2023-05-18T09:16:04.739Z,57.79
2023-05-18T09:17:04.694Z,58.38
2023-05-18T09:18:04.707Z,58.69
2023-05-18T09:19:04.679Z,58.28
2023-05-18T09:20:04.658Z,58.45
2023-05-18T09:21:04.650Z,56.75
2023-05-18T09:22:04.629Z,57.67
2023-05-18T09:23:04.615Z,57.46
2023-05-18T09:24:04.609Z,58.48
2023-05-18T09:25:04.674Z,57.97
2023-05-18T09:26:04.611Z,57.79
2023-05-18T09:27:04.567Z,57.79
2023-05-18T09:28:04.549Z,57.49
2023-05-18T09:29:04.537Z,58.30
2023-05-18T09:30:04.531Z,57.79
2023-05-18T09:31:04.507Z,59.73
2023-05-18T09:32:04.744Z,58.99
2023-05-18T09:33:04.585Z,58.48
2023-05-18T09:34:04.491Z,59.09
2023-05-18T09:35:04.456Z,58.78
2023-05-18T09:36:04.458Z,58.89
2023-05-18T09:37:04.430Z,61.74
2023-05-18T09:38:04.446Z,58.28
2023-05-18T09:39:04.407Z,57.95
2023-05-18T09:40:04.413Z,59.19
2023-05-18T09:41:04.383Z,58.48
2023-05-18T09:42:04.433Z,59.70
2023-05-18T09:43:04.358Z,58.38
2023-05-18T09:44:04.351Z,58.99
2023-05-18T09:45:04.337Z,59.19
2023-05-18T09:46:04.324Z,59.01
2023-05-18T09:47:04.469Z,59.01
2023-05-18T09:48:04.353Z,58.00
2023-05-18T09:49:04.295Z,59.63
2023-05-18T09:50:04.295Z,60.64
2023-05-18T09:51:04.263Z,60.37
2023-05-18T09:52:04.251Z,60.24
2023-05-18T09:53:04.251Z,59.22
2023-05-18T09:54:04.239Z,59.96
2023-05-18T09:55:04.213Z,60.24
2023-05-18T09:56:04.191Z,59.63
2023-05-18T09:57:10.704Z,58.64
2023-05-18T09:58:05.421Z,59.96
2023-05-18T09:59:04.160Z,59.45
2023-05-18T10:00:04.169Z,60.09
2023-05-18T10:01:04.153Z,60.88
2023-05-18T10:02:04.114Z,60.09
2023-05-18T10:03:04.145Z,61.34
2023-05-18T10:04:04.281Z,61.44
2023-05-18T10:05:04.090Z,61.61
2023-05-18T10:06:04.073Z,62.13
2023-05-18T10:07:04.073Z,62.71
2023-05-18T10:08:04.048Z,61.76
2023-05-18T10:09:04.024Z,60.14
2023-05-18T10:10:04.038Z,59.53
2023-05-18T10:11:04.015Z,59.32
2023-05-18T10:12:03.996Z,61.25
2023-05-18T10:13:03.980Z,60.85
2023-05-18T10:14:03.987Z,59.83
2023-05-18T10:15:03.964Z,59.93
2023-05-18T10:16:03.961Z,60.14
2023-05-18T10:17:15.058Z,59.45
2023-05-18T10:18:05.001Z,60.16
2023-05-18T10:19:03.923Z,59.96
2023-05-18T10:20:03.888Z,61.79
2023-05-18T10:21:03.878Z,61.46
2023-05-18T10:22:03.869Z,62.37
2023-05-18T10:23:04.057Z,62.85
2023-05-18T10:24:03.836Z,63.13
2023-05-18T10:25:03.838Z,60.49
2023-05-18T10:26:03.814Z,60.66
2023-05-18T10:27:03.836Z,59.84
2023-05-18T10:28:03.788Z,58.12
2023-05-18T10:29:03.776Z,59.72
2023-05-18T10:30:03.810Z,59.59
2023-05-18T10:31:03.791Z,59.39
2023-05-18T10:32:06.888Z,57.56
2023-05-18T10:33:07.002Z,59.18
2023-05-18T10:34:04.745Z,58.17
2023-05-18T10:35:03.701Z,56.65
2023-05-18T10:36:03.700Z,56.95
2023-05-18T10:37:03.679Z,57.99
2023-05-18T10:38:03.662Z,58.91
2023-05-18T10:39:03.656Z,61.21
2023-05-18T10:40:03.651Z,59.39
2023-05-18T10:41:03.617Z,57.38
2023-05-18T10:42:03.611Z,59.31
2023-05-18T10:43:03.627Z,57.99
2023-05-18T10:44:03.582Z,57.21
2023-05-18T10:45:03.578Z,59.14
2023-05-18T10:46:03.796Z,57.41
2023-05-18T10:47:03.601Z,60.15
2023-05-18T10:48:03.589Z,57.74
2023-05-18T10:49:03.526Z,59.37
2023-05-18T10:50:03.519Z,58.76
2023-05-18T10:51:03.484Z,60.49
2023-05-18T10:52:03.488Z,59.24
2023-05-18T10:53:03.471Z,57.51
2023-05-18T10:54:03.456Z,56.70
2023-05-18T10:55:03.438Z,58.63
2023-05-18T10:56:03.434Z,57.92
2023-05-18T10:57:03.417Z,56.32
2023-05-18T10:58:03.395Z,56.93
2023-05-18T10:59:03.399Z,57.77
2023-05-18T11:00:03.377Z,57.87
2023-05-18T11:01:03.357Z,59.60
2023-05-18T11:02:03.471Z,58.69
2023-05-18T11:03:03.374Z,59.39
2023-05-18T11:04:03.329Z,59.09
2023-05-18T11:05:03.398Z,58.69
2023-05-18T11:06:03.311Z,59.19
2023-05-18T11:07:03.300Z,59.91
2023-05-18T11:08:03.281Z,59.19
2023-05-18T11:09:03.255Z,58.58
2023-05-18T11:10:03.279Z,56.62
2023-05-18T11:11:03.285Z,57.84
2023-05-18T11:12:03.233Z,57.34
2023-05-18T11:13:03.199Z,57.13
2023-05-18T11:14:03.209Z,60.08
2023-05-18T11:15:03.186Z,57.74
2023-05-18T11:16:03.172Z,58.35
2023-05-18T11:17:03.154Z,58.58
2023-05-18T11:18:03.212Z,58.38
2023-05-18T11:19:03.194Z,60.49
2023-05-18T11:20:03.117Z,59.88
2023-05-18T11:21:03.094Z,58.65
2023-05-18T11:22:03.093Z,59.06
2023-05-18T11:23:03.078Z,57.84
2023-05-18T11:24:03.070Z,58.04
2023-05-18T11:25:03.051Z,59.47
2023-05-18T11:26:03.045Z,59.06
2023-05-18T11:27:03.043Z,59.67
2023-05-18T11:28:03.005Z,60.61
2023-05-18T11:29:02.993Z,58.99
2023-05-18T11:30:15.292Z,59.80
2023-05-18T11:31:04.008Z,60.31
2023-05-18T11:32:04.825Z,58.99
2023-05-18T11:33:03.019Z,59.93
2023-05-18T11:34:03.001Z,59.63
2023-05-18T11:35:02.930Z,60.82
2023-05-18T11:36:02.918Z,60.52
2023-05-18T11:37:02.907Z,60.11
2023-05-18T11:38:02.878Z,59.70
2023-05-18T11:39:02.870Z,60.08
2023-05-18T11:40:05.735Z,60.28
2023-05-18T11:41:02.847Z,60.56
2023-05-18T11:42:02.846Z,60.05
2023-05-18T11:43:02.809Z,59.24
2023-05-18T11:44:02.815Z,60.22
2023-05-18T11:45:02.786Z,58.29
2023-05-18T11:46:02.781Z,58.83
2023-05-18T11:47:02.760Z,57.71
2023-05-18T11:48:02.839Z,59.06
2023-05-18T11:49:02.849Z,59.47
2023-05-18T11:50:02.791Z,59.88
2023-05-18T11:51:02.708Z,59.57
2023-05-18T11:52:02.730Z,60.79
2023-05-18T11:53:02.684Z,59.98
2023-05-18T11:54:02.676Z,60.28
2023-05-18T11:55:02.668Z,61.20
2023-05-18T11:56:02.659Z,60.28
2023-05-18T11:57:02.631Z,61.07
2023-05-18T11:58:02.617Z,60.76
2023-05-18T11:59:02.609Z,59.77
2023-05-18T12:00:02.597Z,59.91
2023-05-18T12:01:02.590Z,60.24
2023-05-18T12:02:02.601Z,60.75
2023-05-18T12:03:02.815Z,61.36
2023-05-18T12:04:02.682Z,61.56
2023-05-18T12:05:02.567Z,61.46
2023-05-18T12:06:02.562Z,62.68
2023-05-18T12:07:02.498Z,61.87
2023-05-18T12:08:02.524Z,62.37
2023-05-18T12:09:03.763Z,62.17
2023-05-18T12:10:02.466Z,61.99
2023-05-18T12:11:02.465Z,62.30
2023-05-18T12:12:02.441Z,62.54
2023-05-18T12:13:02.430Z,63.04
2023-05-18T12:14:02.424Z,64.09
2023-05-18T12:15:02.413Z,64.98
2023-05-18T12:16:02.385Z,64.06
2023-05-18T12:17:02.483Z,64.17
2023-05-18T12:18:02.501Z,63.86
2023-05-18T12:19:02.418Z,64.26
2023-05-18T12:20:02.328Z,63.15
2023-05-18T12:21:02.365Z,63.56
2023-05-18T12:22:02.335Z,63.96
2023-05-18T12:23:02.318Z,64.37
2023-05-18T12:24:02.316Z,64.47
2023-05-18T12:25:02.276Z,64.67
2023-05-18T12:26:02.266Z,64.95
2023-05-18T12:27:02.244Z,64.34
2023-05-18T12:28:02.242Z,64.44
2023-05-18T12:29:02.228Z,63.80
2023-05-18T12:30:02.211Z,64.20
2023-05-18T12:31:02.232Z,65.22
2023-05-18T12:32:02.180Z,62.98
2023-05-18T12:33:02.210Z,62.88
2023-05-18T12:34:02.155Z,63.32
2023-05-18T12:35:02.141Z,62.81
2023-05-18T12:36:02.134Z,63.45
2023-05-18T12:37:02.120Z,64.57
2023-05-18T12:38:02.845Z,64.37
2023-05-18T12:39:02.093Z,63.76
2023-05-18T12:40:02.074Z,63.76
2023-05-18T12:41:02.084Z,64.06
2023-05-18T12:42:02.057Z,64.47
2023-05-18T12:43:02.046Z,64.17
2023-05-18T12:44:02.039Z,64.54
2023-05-18T12:45:02.783Z,64.23
2023-05-18T12:46:02.085Z,65.46
2023-05-18T12:47:02.024Z,64.95
2023-05-18T12:48:02.057Z,64.64
2023-05-18T12:49:01.986Z,64.34
2023-05-18T12:50:01.949Z,63.12
2023-05-18T12:51:01.946Z,64.37
2023-05-18T12:52:01.930Z,64.87